createdAt,value
2022-12-11T00:00:39.977Z,27.20
2022-12-11T00:03:09.181Z,28.40
2022-12-11T00:05:40.812Z,30.45
2022-12-11T00:09:11.559Z,29.75
2022-12-11T00:11:39.016Z,28.20
2022-12-11T00:14:07.899Z,31.25
2022-12-11T00:16:35.551Z,30.37
2022-12-11T00:19:02.110Z,28.52
2022-12-11T00:21:30.736Z,32.30
2022-12-11T00:26:42.578Z,30.85
2022-12-11T00:29:14.851Z,33.53
2022-12-11T00:31:42.400Z,32.13
2022-12-11T00:34:09.818Z,28.98
2022-12-11T00:36:36.608Z,32.15
2022-12-11T00:39:04.629Z,31.17
2022-12-11T00:41:31.716Z,31.03
2022-12-11T00:43:58.450Z,32.33
2022-12-11T00:46:25.554Z,29.55
2022-12-11T00:48:53.645Z,31.00
2022-12-11T00:51:23.198Z,30.23
2022-12-11T00:53:50.467Z,31.67
2022-12-11T00:56:20.801Z,32.85
2022-12-11T00:58:48.483Z,32.45
2022-12-11T01:01:18.967Z,33.33
2022-12-11T01:03:46.344Z,31.17
2022-12-11T01:06:17.780Z,33.08
2022-12-11T01:08:45.546Z,31.88
2022-12-11T01:11:15.054Z,30.60
2022-12-11T01:13:42.626Z,31.17
2022-12-11T01:16:12.457Z,32.03
2022-12-11T01:18:40.996Z,31.33
2022-12-11T01:21:09.913Z,32.85
2022-12-11T01:23:36.787Z,30.30
2022-12-11T01:26:16.230Z,29.80
2022-12-11T01:28:44.545Z,31.55
2022-12-11T01:31:19.915Z,30.70
2022-12-11T01:33:48.302Z,32.53
2022-12-11T01:36:19.846Z,29.40
2022-12-11T01:38:47.992Z,29.67
2022-12-11T01:41:17.275Z,32.90
2022-12-11T01:46:28.640Z,32.45
2022-12-11T01:48:56.410Z,31.20
2022-12-11T01:51:24.589Z,31.15
2022-12-11T01:54:01.361Z,34.17
2022-12-11T01:56:30.426Z,31.90
2022-12-11T01:59:06.659Z,34.88
2022-12-11T02:01:47.251Z,31.98
2022-12-11T02:04:15.646Z,29.10
2022-12-11T02:06:47.066Z,32.72
2022-12-11T02:09:16.318Z,32.40
2022-12-11T02:11:48.478Z,32.60
2022-12-11T02:14:33.370Z,28.92
2022-12-11T02:17:13.976Z,30.55
2022-12-11T02:20:03.307Z,31.60
2022-12-11T02:25:48.137Z,32.17
2022-12-11T02:28:30.026Z,29.83
2022-12-11T02:31:36.568Z,34.53
2022-12-11T02:34:11.365Z,32.22
2022-12-11T02:36:41.320Z,30.27
2022-12-11T02:39:10.574Z,34.90
2022-12-11T02:41:41.104Z,32.85
2022-12-11T02:44:08.631Z,32.72
2022-12-11T02:46:37.462Z,30.58
2022-12-11T02:49:05.618Z,32.75
2022-12-11T02:51:34.923Z,30.50
2022-12-11T02:56:33.376Z,33.92
2022-12-11T02:59:06.590Z,29.42
2022-12-11T03:01:33.443Z,31.45
2022-12-11T03:04:00.219Z,31.10
2022-12-11T03:06:33.616Z,36.47
2022-12-11T03:09:00.609Z,35.90
2022-12-11T03:11:27.241Z,30.85
2022-12-11T03:13:54.387Z,32.35
2022-12-11T03:16:26.028Z,32.35
2022-12-11T03:19:03.685Z,30.65
2022-12-11T03:21:41.268Z,33.15
2022-12-11T03:24:19.837Z,33.58
2022-12-11T03:26:56.575Z,36.30
2022-12-11T03:29:26.686Z,36.78
2022-12-11T03:31:58.297Z,34.88
2022-12-11T03:34:35.684Z,35.97
2022-12-11T03:37:06.687Z,37.35
2022-12-11T03:39:38.102Z,36.83
2022-12-11T03:42:09.009Z,39.75
2022-12-11T03:44:36.740Z,37.58
2022-12-11T03:47:07.730Z,40.10
2022-12-11T03:49:40.844Z,44.63
2022-12-11T03:52:09.958Z,40.97
2022-12-11T03:54:39.265Z,42.60
2022-12-11T03:57:06.837Z,44.15
2022-12-11T03:59:33.557Z,40.53
2022-12-11T04:02:00.277Z,42.22
2022-12-11T04:04:28.342Z,41.83
2022-12-11T04:06:55.186Z,39.40
2022-12-11T04:09:22.020Z,38.25
2022-12-11T04:11:48.635Z,38.97
2022-12-11T04:14:34.434Z,40.00
2022-12-11T04:17:01.495Z,37.70
2022-12-11T04:19:47.353Z,40.65
2022-12-11T04:22:34.882Z,38.38
2022-12-11T04:25:02.402Z,42.47
2022-12-11T04:27:48.547Z,44.60
2022-12-11T04:30:21.460Z,40.28
2022-12-11T04:32:48.321Z,42.55
2022-12-11T04:35:15.141Z,49.85
2022-12-11T04:37:42.403Z,41.22
2022-12-11T04:40:15.406Z,41.08
2022-12-11T04:42:42.713Z,41.45
2022-12-11T04:45:10.483Z,34.42
2022-12-11T04:47:39.013Z,32.50
2022-12-11T04:50:07.444Z,30.80
2022-12-11T04:52:34.254Z,34.35
2022-12-11T04:55:00.975Z,32.22
2022-12-11T04:57:28.117Z,29.60
2022-12-11T04:59:54.890Z,30.42
2022-12-11T05:02:23.687Z,28.90
2022-12-11T05:04:50.576Z,32.45
2022-12-11T05:07:17.410Z,31.52
2022-12-11T05:09:44.195Z,34.45
2022-12-11T05:12:10.942Z,40.95
2022-12-11T05:14:37.678Z,48.35
2022-12-11T05:17:04.406Z,46.08
2022-12-11T05:19:31.219Z,47.63
2022-12-11T05:21:57.986Z,43.72
2022-12-11T05:24:24.750Z,49.47
2022-12-11T05:26:51.452Z,49.80
2022-12-11T05:29:21.680Z,47.58
2022-12-11T05:31:48.582Z,53.63
2022-12-11T05:34:16.174Z,52.97
2022-12-11T05:36:42.980Z,55.35
2022-12-11T05:39:11.791Z,52.20
2022-12-11T05:41:38.575Z,56.50
2022-12-11T05:44:05.666Z,53.13
2022-12-11T05:46:32.652Z,50.60
2022-12-11T05:49:17.523Z,57.85
2022-12-11T05:51:47.716Z,55.30
2022-12-11T05:54:14.913Z,47.25
2022-12-11T05:56:42.924Z,43.35
2022-12-11T05:59:09.641Z,50.67
2022-12-11T06:01:40.250Z,52.42
2022-12-11T06:04:09.242Z,56.22
2022-12-11T06:06:36.601Z,52.78
2022-12-11T06:09:04.741Z,52.97
2022-12-11T06:11:32.390Z,60.60
2022-12-11T06:14:00.573Z,55.25
2022-12-11T06:16:27.520Z,53.05
2022-12-11T06:18:58.034Z,56.50
2022-12-11T06:21:33.029Z,56.30
2022-12-11T06:24:02.557Z,57.90
2022-12-11T06:26:32.446Z,58.88
2022-12-11T06:28:59.950Z,56.22
2022-12-11T06:31:26.830Z,53.67
2022-12-11T06:33:54.411Z,54.53
2022-12-11T06:36:23.768Z,56.95
2022-12-11T06:41:17.611Z,54.55
2022-12-11T06:43:46.058Z,53.97
2022-12-11T06:46:15.892Z,60.13
2022-12-11T06:48:43.274Z,61.80
2022-12-11T06:51:13.763Z,56.10
2022-12-11T06:53:41.425Z,59.50
2022-12-11T06:56:12.092Z,57.03
2022-12-11T06:58:39.694Z,55.58
2022-12-11T07:01:15.708Z,56.85
2022-12-11T07:03:42.385Z,56.60
2022-12-11T07:06:09.308Z,50.33
2022-12-11T07:08:36.474Z,50.63
2022-12-11T07:11:08.531Z,47.40
2022-12-11T07:13:35.668Z,49.88
2022-12-11T07:16:04.661Z,50.40
2022-12-11T07:18:32.507Z,50.90
2022-12-11T07:21:00.672Z,54.38
2022-12-11T07:23:28.747Z,54.05
2022-12-11T07:25:56.846Z,49.80
2022-12-11T07:28:24.551Z,43.30
2022-12-11T07:30:51.351Z,50.92
2022-12-11T07:33:18.491Z,38.58
2022-12-11T07:35:45.161Z,43.03
2022-12-11T07:38:11.935Z,48.78
2022-12-11T07:40:38.592Z,50.40
2022-12-11T07:43:05.186Z,53.85
2022-12-11T07:45:32.124Z,51.22
2022-12-11T07:47:59.028Z,52.60
2022-12-11T07:50:25.551Z,50.67
2022-12-11T07:52:52.589Z,50.03
2022-12-11T07:55:19.160Z,47.10
2022-12-11T07:57:45.547Z,54.20
2022-12-11T08:00:12.240Z,52.08
2022-12-11T08:05:08.727Z,46.90
2022-12-11T08:07:35.705Z,55.20
2022-12-11T08:10:02.811Z,51.25
2022-12-11T08:12:29.293Z,57.22
2022-12-11T08:14:55.683Z,79.22
2022-12-11T08:17:27.368Z,78.57
2022-12-11T08:19:55.912Z,68.40
2022-12-11T08:22:22.287Z,57.10
2022-12-11T08:24:48.792Z,51.50
2022-12-11T08:27:15.249Z,49.72
2022-12-11T08:29:41.621Z,51.58
2022-12-11T08:32:12.277Z,51.10
2022-12-11T08:34:39.336Z,48.90
2022-12-11T08:37:05.831Z,54.65
2022-12-11T08:39:32.222Z,50.67
2022-12-11T08:41:58.601Z,53.80
2022-12-11T08:44:26.709Z,53.35
2022-12-11T08:46:53.178Z,48.92
2022-12-11T08:49:19.660Z,51.38
2022-12-11T08:51:46.124Z,50.90
2022-12-11T08:54:12.664Z,54.55
2022-12-11T08:56:39.295Z,50.90
2022-12-11T08:59:06.228Z,47.83
2022-12-11T09:01:32.868Z,47.03
2022-12-11T09:03:59.297Z,41.25
2022-12-11T09:06:27.129Z,46.65
2022-12-11T09:08:54.631Z,50.58
2022-12-11T09:11:26.608Z,50.85
2022-12-11T09:13:53.104Z,54.03
2022-12-11T09:16:22.113Z,53.72
2022-12-11T09:18:50.105Z,54.45
2022-12-11T09:21:19.650Z,52.88
2022-12-11T09:23:46.236Z,55.65
2022-12-11T09:26:14.653Z,56.63
2022-12-11T09:28:46.298Z,59.43
2022-12-11T09:31:26.800Z,57.63
2022-12-11T09:33:59.485Z,59.78
2022-12-11T09:36:26.382Z,58.03
2022-12-11T09:38:52.920Z,59.45
2022-12-11T09:41:22.275Z,61.45
2022-12-11T09:46:34.930Z,60.67
2022-12-11T09:49:03.514Z,63.30
2022-12-11T09:51:43.053Z,58.08
2022-12-11T09:54:11.660Z,59.55
2022-12-11T09:57:03.233Z,60.75
2022-12-11T09:59:47.849Z,64.38
2022-12-11T10:02:35.862Z,61.00
2022-12-11T10:05:17.272Z,59.25
2022-12-11T10:08:00.655Z,56.63
2022-12-11T10:10:43.661Z,60.33
2022-12-11T10:13:46.890Z,60.55
2022-12-11T10:16:20.668Z,56.65
2022-12-11T10:18:48.818Z,61.42
2022-12-11T10:21:16.366Z,64.07
2022-12-11T10:24:00.995Z,56.20
2022-12-11T10:26:28.970Z,57.97
2022-12-11T10:28:59.491Z,60.72
2022-12-11T10:31:39.137Z,60.85
2022-12-11T10:34:13.396Z,62.00
2022-12-11T10:36:41.426Z,57.75
2022-12-11T10:39:26.191Z,57.70
2022-12-11T10:41:54.213Z,59.42
2022-12-11T10:44:25.513Z,56.20
2022-12-11T10:47:12.750Z,59.38
2022-12-11T10:49:43.460Z,59.28
2022-12-11T10:52:21.146Z,60.78
2022-12-11T10:54:55.746Z,54.58
2022-12-11T10:57:28.348Z,56.70
2022-12-11T10:59:55.162Z,58.10
2022-12-11T11:02:24.336Z,53.67
2022-12-11T11:04:51.157Z,58.90
2022-12-11T11:07:20.369Z,55.35
2022-12-11T11:09:47.843Z,51.33
2022-12-11T11:12:26.378Z,53.33
2022-12-11T11:15:00.556Z,55.15
2022-12-11T11:17:30.753Z,54.35
2022-12-11T11:20:07.385Z,52.92
2022-12-11T11:22:39.078Z,58.42
2022-12-11T11:25:06.060Z,54.10
2022-12-11T11:27:40.605Z,59.38
2022-12-11T11:30:19.115Z,63.83
2022-12-11T11:32:45.825Z,58.78
2022-12-11T11:35:12.566Z,52.65
2022-12-11T11:37:42.177Z,53.13
2022-12-11T11:40:19.440Z,54.33
2022-12-11T11:42:52.823Z,59.20
2022-12-11T11:45:26.345Z,53.35
2022-12-11T11:48:09.468Z,59.92
2022-12-11T11:50:40.904Z,55.60
2022-12-11T11:53:29.275Z,53.22
2022-12-11T11:56:24.116Z,54.23
2022-12-11T11:59:14.732Z,60.30
2022-12-11T12:01:43.041Z,60.50
2022-12-11T12:04:09.450Z,57.00
2022-12-11T12:07:04.837Z,57.20
2022-12-11T12:09:44.646Z,60.17
2022-12-11T12:12:39.005Z,56.75
2022-12-11T12:15:25.231Z,60.45
2022-12-11T12:17:56.634Z,56.30
2022-12-11T12:20:39.605Z,61.10
2022-12-11T12:23:36.876Z,62.92
2022-12-11T12:26:12.712Z,58.42
2022-12-11T12:29:14.386Z,58.00
2022-12-11T12:32:19.424Z,59.38
2022-12-11T12:35:15.471Z,59.90
2022-12-11T12:37:58.765Z,60.85
2022-12-11T12:40:49.915Z,60.83
2022-12-11T12:43:25.323Z,59.60
2022-12-11T12:46:04.822Z,64.25
2022-12-11T12:48:31.809Z,63.97
2022-12-11T12:50:58.426Z,67.18
2022-12-11T12:53:28.743Z,67.40
2022-12-11T12:55:55.474Z,64.28
2022-12-11T12:58:41.307Z,64.53
2022-12-11T13:01:17.348Z,67.65
2022-12-11T13:03:54.519Z,64.93
2022-12-11T13:06:40.719Z,66.00
2022-12-11T13:09:26.925Z,68.88
2022-12-11T13:11:57.590Z,62.42
2022-12-11T13:14:32.398Z,65.68
2022-12-11T13:17:22.248Z,63.40
2022-12-11T13:19:49.985Z,59.17
2022-12-11T13:22:16.297Z,67.55
2022-12-11T13:24:47.099Z,68.30
2022-12-11T13:27:27.523Z,62.50
2022-12-11T13:30:05.074Z,62.45
2022-12-11T13:32:31.593Z,61.35
2022-12-11T13:34:59.336Z,57.83
2022-12-11T13:37:35.869Z,65.78
2022-12-11T13:40:05.626Z,64.95
2022-12-11T13:42:35.971Z,63.50
2022-12-11T13:45:03.363Z,63.92
2022-12-11T13:47:31.529Z,62.78
2022-12-11T13:50:14.925Z,63.38
2022-12-11T13:52:41.384Z,65.88
2022-12-11T13:55:20.059Z,62.58
2022-12-11T13:57:46.714Z,62.25
2022-12-11T14:00:25.775Z,62.10
2022-12-11T14:02:53.519Z,61.95
2022-12-11T14:05:20.976Z,59.45
2022-12-11T14:07:50.470Z,63.05
2022-12-11T14:10:20.747Z,65.80
2022-12-11T14:12:56.574Z,66.10
2022-12-11T14:15:23.247Z,63.88
2022-12-11T14:17:51.961Z,68.03
2022-12-11T14:20:24.646Z,58.78
2022-12-11T14:22:51.113Z,65.18
2022-12-11T14:25:24.708Z,59.40
2022-12-11T14:27:53.536Z,65.38
2022-12-11T14:30:31.770Z,61.45
2022-12-11T14:33:00.241Z,63.97
2022-12-11T14:35:37.105Z,61.63
2022-12-11T14:38:13.255Z,61.70
2022-12-11T14:40:42.322Z,59.97
2022-12-11T14:43:20.306Z,61.30
2022-12-11T14:45:48.814Z,63.70
2022-12-11T14:48:28.378Z,63.60
2022-12-11T14:50:57.838Z,67.28
2022-12-11T14:53:27.935Z,61.35
2022-12-11T14:55:55.712Z,62.10
2022-12-11T14:58:24.939Z,61.70
2022-12-11T15:01:21.817Z,63.80
2022-12-11T15:03:48.385Z,60.75
2022-12-11T15:06:26.239Z,86.18
2022-12-11T15:08:52.998Z,69.38
2022-12-11T15:11:19.442Z,65.70
2022-12-11T15:13:56.773Z,61.95
2022-12-11T15:16:24.881Z,60.22
2022-12-11T15:18:53.006Z,68.80
2022-12-11T15:21:19.843Z,64.07
2022-12-11T15:23:52.509Z,59.78
2022-12-11T15:26:20.603Z,58.65
2022-12-11T15:28:47.118Z,61.40
2022-12-11T15:31:27.529Z,61.50
2022-12-11T15:33:54.486Z,57.17
2022-12-11T15:36:33.111Z,62.97
2022-12-11T15:38:59.712Z,62.70
2022-12-11T15:41:26.676Z,65.30
2022-12-11T15:43:58.880Z,60.85
2022-12-11T15:46:26.015Z,62.72
2022-12-11T15:48:52.528Z,59.75
2022-12-11T15:51:18.968Z,61.85
2022-12-11T15:53:45.372Z,62.08
2022-12-11T15:56:18.277Z,58.00
2022-12-11T15:58:45.697Z,56.78
2022-12-11T16:01:12.275Z,56.47
2022-12-11T16:03:38.766Z,58.85
2022-12-11T16:06:05.369Z,59.08
2022-12-11T16:08:32.179Z,64.78
2022-12-11T16:10:59.769Z,60.20
2022-12-11T16:13:26.928Z,66.13
2022-12-11T16:15:54.124Z,63.58
2022-12-11T16:18:22.411Z,58.45
2022-12-11T16:20:49.682Z,57.70
2022-12-11T16:23:17.132Z,55.83
2022-12-11T16:25:45.050Z,59.47
2022-12-11T16:28:13.781Z,58.00
2022-12-11T16:30:40.390Z,55.60
2022-12-11T16:33:12.480Z,56.42
2022-12-11T16:35:40.159Z,62.90
2022-12-11T16:38:07.908Z,59.40
2022-12-11T16:40:34.313Z,58.33
2022-12-11T16:43:00.779Z,57.72
2022-12-11T16:45:27.888Z,56.28
2022-12-11T16:47:54.547Z,59.13
2022-12-11T16:50:23.695Z,58.08
2022-12-11T16:55:20.985Z,55.88
2022-12-11T16:57:47.691Z,56.55
2022-12-11T17:00:14.335Z,53.95
2022-12-11T17:02:41.154Z,54.28
2022-12-11T17:05:07.986Z,54.50
2022-12-11T17:07:34.597Z,56.00
2022-12-11T17:10:02.776Z,52.15
2022-12-11T17:12:29.838Z,48.83
2022-12-11T17:14:57.051Z,48.80
2022-12-11T17:17:24.133Z,44.58
2022-12-11T17:19:50.637Z,50.70
2022-12-11T17:22:17.122Z,49.67
2022-12-11T17:24:43.583Z,45.05
2022-12-11T17:27:10.288Z,46.72
2022-12-11T17:29:36.801Z,47.15
2022-12-11T17:32:03.347Z,44.33
2022-12-11T17:34:34.635Z,46.17
2022-12-11T17:37:04.386Z,49.42
2022-12-11T17:39:30.825Z,58.92
2022-12-11T17:41:57.268Z,44.72
2022-12-11T17:44:26.505Z,46.60
2022-12-11T17:49:19.730Z,42.33
2022-12-11T17:51:47.803Z,43.35
2022-12-11T17:54:14.262Z,41.20
2022-12-11T17:56:40.769Z,42.50
2022-12-11T17:59:07.169Z,41.97
2022-12-11T18:01:33.819Z,41.72
2022-12-11T18:04:01.812Z,44.15
2022-12-11T18:06:28.779Z,43.25
2022-12-11T18:08:55.749Z,43.10
2022-12-11T18:11:22.524Z,42.28
2022-12-11T18:13:51.337Z,35.40
2022-12-11T18:16:26.301Z,30.27
2022-12-11T18:18:53.403Z,35.10
2022-12-11T18:21:26.059Z,30.83
2022-12-11T18:23:52.997Z,30.50
2022-12-11T18:26:19.696Z,39.33
2022-12-11T18:28:47.319Z,31.45
2022-12-11T18:31:14.210Z,33.08
2022-12-11T18:33:42.411Z,33.13
2022-12-11T18:36:09.535Z,37.05
2022-12-11T18:38:36.431Z,35.33
2022-12-11T18:41:04.829Z,33.35
2022-12-11T18:43:31.231Z,33.13
2022-12-11T18:45:57.725Z,30.20
2022-12-11T18:48:25.454Z,31.70
2022-12-11T18:50:52.224Z,30.30
2022-12-11T18:53:19.508Z,30.58
2022-12-11T18:55:47.885Z,29.38
2022-12-11T18:58:17.460Z,28.73
2022-12-11T19:00:45.283Z,28.10
2022-12-11T19:03:13.568Z,23.58
2022-12-11T19:05:42.430Z,25.10
2022-12-11T19:08:09.559Z,24.00
2022-12-11T19:10:42.586Z,26.65
2022-12-11T19:13:09.078Z,26.90
2022-12-11T19:15:39.160Z,28.30
2022-12-11T19:18:06.449Z,24.88
2022-12-11T19:23:23.121Z,26.00
2022-12-11T19:25:50.443Z,26.70
2022-12-11T19:28:18.501Z,24.48
2022-12-11T19:30:49.089Z,25.50
2022-12-11T19:33:16.354Z,25.83
2022-12-11T19:35:43.186Z,25.73
2022-12-11T19:38:09.881Z,32.33
2022-12-11T19:40:43.362Z,32.65
2022-12-11T19:43:10.465Z,29.38
2022-12-11T19:45:36.947Z,25.48
2022-12-11T19:48:03.505Z,22.65
2022-12-11T19:50:30.166Z,20.08
2022-12-11T19:52:56.629Z,20.98
2022-12-11T19:55:23.100Z,19.88
2022-12-11T19:57:49.509Z,20.15
2022-12-11T20:00:16.121Z,20.05
2022-12-11T20:02:42.677Z,20.52
2022-12-11T20:05:09.793Z,21.58
2022-12-11T20:07:36.512Z,19.88
2022-12-11T20:10:03.062Z,19.48
2022-12-11T20:12:29.507Z,21.15
2022-12-11T20:14:55.909Z,21.42
2022-12-11T20:17:22.359Z,21.55
2022-12-11T20:19:49.513Z,18.85
2022-12-11T20:22:15.877Z,20.20
2022-12-11T20:24:42.271Z,19.92
2022-12-11T20:27:09.439Z,19.55
2022-12-11T20:29:37.208Z,17.30
2022-12-11T20:32:03.798Z,19.02
2022-12-11T20:34:30.450Z,21.52
2022-12-11T20:36:56.871Z,22.70
2022-12-11T20:39:23.392Z,21.20
2022-12-11T20:41:49.850Z,18.38
2022-12-11T20:44:16.328Z,20.75
2022-12-11T20:46:42.710Z,20.60
2022-12-11T20:49:12.741Z,23.02
2022-12-11T20:51:39.925Z,28.02
2022-12-11T20:54:06.435Z,34.53
2022-12-11T20:56:33.176Z,30.60
2022-12-11T20:59:00.572Z,28.95
2022-12-11T21:01:29.707Z,31.40
2022-12-11T21:03:56.260Z,33.05
2022-12-11T21:06:25.874Z,33.47
2022-12-11T21:08:53.083Z,32.03
2022-12-11T21:11:20.018Z,30.10
2022-12-11T21:13:50.072Z,29.58
2022-12-11T21:16:18.233Z,27.02
2022-12-11T21:18:46.428Z,23.20
2022-12-11T21:21:13.068Z,26.80
2022-12-11T21:23:39.575Z,28.95
2022-12-11T21:26:06.442Z,31.50
2022-12-11T21:28:35.516Z,28.15
2022-12-11T21:31:04.132Z,29.80
2022-12-11T21:33:30.542Z,27.85
2022-12-11T21:35:57.807Z,26.58
2022-12-11T21:38:24.622Z,24.95
2022-12-11T21:40:52.034Z,22.80
2022-12-11T21:43:18.638Z,23.05
2022-12-11T21:46:01.681Z,25.23
2022-12-11T21:48:29.308Z,24.75
2022-12-11T21:50:56.115Z,29.65
2022-12-11T21:53:22.850Z,29.15
2022-12-11T21:55:49.268Z,25.10
2022-12-11T21:58:15.721Z,23.85
2022-12-11T22:00:42.360Z,23.20
2022-12-11T22:03:08.857Z,22.90
2022-12-11T22:05:35.263Z,23.40
2022-12-11T22:08:02.157Z,21.60
2022-12-11T22:10:28.957Z,24.80
2022-12-11T22:12:55.529Z,23.40
2022-12-11T22:15:22.118Z,23.40
2022-12-11T22:17:48.889Z,21.83
2022-12-11T22:20:15.378Z,24.05
2022-12-11T22:22:41.950Z,22.50
2022-12-11T22:25:09.659Z,26.27
2022-12-11T22:27:36.450Z,24.25
2022-12-11T22:30:03.982Z,24.27
2022-12-11T22:32:30.497Z,22.17
2022-12-11T22:34:57.704Z,23.98
2022-12-11T22:37:24.569Z,22.85
2022-12-11T22:39:51.051Z,19.88
2022-12-11T22:42:17.601Z,20.98
2022-12-11T22:44:44.052Z,20.60
2022-12-11T22:47:10.468Z,18.63
2022-12-11T22:49:38.090Z,22.27
2022-12-11T22:52:04.700Z,19.65
2022-12-11T22:54:31.106Z,27.33
2022-12-11T22:56:58.032Z,25.00
2022-12-11T22:59:24.589Z,27.80
2022-12-11T23:02:20.245Z,28.08
2022-12-11T23:04:46.965Z,28.92
2022-12-11T23:07:13.398Z,28.48
2022-12-11T23:09:39.930Z,29.45
2022-12-11T23:12:06.788Z,29.38
2022-12-11T23:14:33.328Z,29.08
2022-12-11T23:17:07.147Z,27.52
2022-12-11T23:19:34.534Z,35.72
2022-12-11T23:22:00.915Z,32.50
2022-12-11T23:24:27.541Z,31.80
2022-12-11T23:26:54.181Z,32.05
2022-12-11T23:29:21.884Z,29.98
2022-12-11T23:31:48.962Z,30.75
2022-12-11T23:34:15.523Z,33.85
2022-12-11T23:36:42.076Z,32.20
2022-12-11T23:39:08.514Z,32.60
2022-12-11T23:41:35.011Z,34.00
2022-12-11T23:44:01.669Z,36.13
2022-12-11T23:46:28.440Z,34.22
2022-12-11T23:48:59.279Z,34.22
2022-12-11T23:51:25.771Z,33.42
2022-12-11T23:53:52.399Z,33.42
2022-12-11T23:56:24.489Z,33.67
2022-12-11T23:58:52.010Z,34.92
